Whitewater, Colorado
Current Conditions -  °F | °C
As of 11:53 PM on Friday 24 Oct 2014 (Local Time) from KGJT Reporting Station
Clear Clear  
Wind Chill: 50°   Ceiling: Unl
Heat Index: 50°   Visibility: 10mi
Dew Point: 34°   Wind: 12mph
Humidity: 54%   Direction: 130°SE
Pressure: 30.24"   Gusts: NA
Location:  38.99°N, 108.45°W
Report Text: KGJT 250553Z AUTO 13010KT 10SM CLR 10/01 A3024 RMK AO2 SLP203 T01000011 10206 20089 51006
Loading
Personal Weather Stations






























Interactive Weather Map New forecast layout! Learn more

10-Day Weather Forecast

Advertisements
Track Severe Weather on mobile